sensor_id;sensor_type;location;lat;lon;timestamp;temperature;humidity
25436;DHT22;13363;52.772;-3.890;2022-11-15T00:01:39;11.50;99.90
25436;DHT22;13363;52.772;-3.890;2022-11-15T00:04:06;11.70;99.90
25436;DHT22;13363;52.772;-3.890;2022-11-15T00:06:32;11.90;99.90
25436;DHT22;13363;52.772;-3.890;2022-11-15T00:08:59;11.90;99.90
25436;DHT22;13363;52.772;-3.890;2022-11-15T00:11:25;11.90;99.90
25436;DHT22;13363;52.772;-3.890;2022-11-15T00:13:51;11.90;99.90
25436;DHT22;13363;52.772;-3.890;2022-11-15T00:16:20;11.90;99.90
25436;DHT22;13363;52.772;-3.890;2022-11-15T00:18:45;11.90;99.90
25436;DHT22;13363;52.772;-3.890;2022-11-15T00:21:15;11.90;99.90
25436;DHT22;13363;52.772;-3.890;2022-11-15T00:23:41;11.90;99.90
25436;DHT22;13363;52.772;-3.890;2022-11-15T00:26:11;11.90;99.90
25436;DHT22;13363;52.772;-3.890;2022-11-15T00:28:37;11.80;99.90
25436;DHT22;13363;52.772;-3.890;2022-11-15T00:31:05;11.80;99.90
25436;DHT22;13363;52.772;-3.890;2022-11-15T00:33:32;11.80;99.90
25436;DHT22;13363;52.772;-3.890;2022-11-15T00:36:04;11.70;99.90
25436;DHT22;13363;52.772;-3.890;2022-11-15T00:38:34;11.70;99.90
25436;DHT22;13363;52.772;-3.890;2022-11-15T00:41:01;11.70;99.90
25436;DHT22;13363;52.772;-3.890;2022-11-15T00:43:27;11.60;99.90
25436;DHT22;13363;52.772;-3.890;2022-11-15T00:45:53;11.60;99.90
25436;DHT22;13363;52.772;-3.890;2022-11-15T00:48:18;11.50;99.90
25436;DHT22;13363;52.772;-3.890;2022-11-15T00:50:44;11.50;99.90
25436;DHT22;13363;52.772;-3.890;2022-11-15T00:53:10;11.50;99.90
25436;DHT22;13363;52.772;-3.890;2022-11-15T00:55:36;11.70;99.90
25436;DHT22;13363;52.772;-3.890;2022-11-15T00:58:02;11.60;99.90
25436;DHT22;13363;52.772;-3.890;2022-11-15T01:00:28;11.60;99.90
25436;DHT22;13363;52.772;-3.890;2022-11-15T01:02:54;11.70;99.90
25436;DHT22;13363;52.772;-3.890;2022-11-15T01:05:20;11.80;99.90
25436;DHT22;13363;52.772;-3.890;2022-11-15T01:07:46;11.70;99.90
25436;DHT22;13363;52.772;-3.890;2022-11-15T01:10:11;11.70;99.90
25436;DHT22;13363;52.772;-3.890;2022-11-15T01:12:40;11.70;99.90
25436;DHT22;13363;52.772;-3.890;2022-11-15T01:15:07;11.60;99.90
25436;DHT22;13363;52.772;-3.890;2022-11-15T01:17:33;11.60;99.90
25436;DHT22;13363;52.772;-3.890;2022-11-15T01:19:59;11.60;99.90
25436;DHT22;13363;52.772;-3.890;2022-11-15T01:22:25;11.80;99.90
25436;DHT22;13363;52.772;-3.890;2022-11-15T01:24:51;11.90;99.90
25436;DHT22;13363;52.772;-3.890;2022-11-15T01:27:17;12.00;99.90
25436;DHT22;13363;52.772;-3.890;2022-11-15T01:29:42;12.00;99.90
25436;DHT22;13363;52.772;-3.890;2022-11-15T01:32:08;12.00;99.90
25436;DHT22;13363;52.772;-3.890;2022-11-15T01:34:34;11.90;99.90
25436;DHT22;13363;52.772;-3.890;2022-11-15T01:37:00;11.90;99.90
25436;DHT22;13363;52.772;-3.890;2022-11-15T01:39:26;12.00;99.90
25436;DHT22;13363;52.772;-3.890;2022-11-15T01:41:52;12.00;99.90
25436;DHT22;13363;52.772;-3.890;2022-11-15T01:47:12;12.10;99.90
25436;DHT22;13363;52.772;-3.890;2022-11-15T01:49:47;12.10;99.90
25436;DHT22;13363;52.772;-3.890;2022-11-15T01:52:19;12.30;99.90
25436;DHT22;13363;52.772;-3.890;2022-11-15T01:54:48;12.30;99.90
25436;DHT22;13363;52.772;-3.890;2022-11-15T01:57:15;12.20;99.90
25436;DHT22;13363;52.772;-3.890;2022-11-15T01:59:43;12.30;99.90
25436;DHT22;13363;52.772;-3.890;2022-11-15T02:02:10;12.30;99.90
25436;DHT22;13363;52.772;-3.890;2022-11-15T02:04:45;12.40;99.90
25436;DHT22;13363;52.772;-3.890;2022-11-15T02:07:15;12.30;99.90
25436;DHT22;13363;52.772;-3.890;2022-11-15T02:09:43;12.30;99.90
25436;DHT22;13363;52.772;-3.890;2022-11-15T02:12:10;12.30;99.90
25436;DHT22;13363;52.772;-3.890;2022-11-15T02:14:38;12.30;99.90
25436;DHT22;13363;52.772;-3.890;2022-11-15T02:23:03;12.40;99.90
25436;DHT22;13363;52.772;-3.890;2022-11-15T02:26:18;12.40;99.90
25436;DHT22;13363;52.772;-3.890;2022-11-15T02:31:13;12.50;99.90
25436;DHT22;13363;52.772;-3.890;2022-11-15T02:41:54;12.40;99.90
25436;DHT22;13363;52.772;-3.890;2022-11-15T02:44:46;12.50;99.90
25436;DHT22;13363;52.772;-3.890;2022-11-15T02:47:13;12.60;99.90
25436;DHT22;13363;52.772;-3.890;2022-11-15T02:49:51;12.60;99.90
25436;DHT22;13363;52.772;-3.890;2022-11-15T02:52:22;12.60;99.90
25436;DHT22;13363;52.772;-3.890;2022-11-15T02:54:59;12.60;99.90
25436;DHT22;13363;52.772;-3.890;2022-11-15T03:00:35;12.70;99.90
25436;DHT22;13363;52.772;-3.890;2022-11-15T03:08:31;12.60;99.90
25436;DHT22;13363;52.772;-3.890;2022-11-15T03:11:09;12.70;99.90
25436;DHT22;13363;52.772;-3.890;2022-11-15T03:13:46;12.70;99.90
25436;DHT22;13363;52.772;-3.890;2022-11-15T03:22:02;12.70;99.90
25436;DHT22;13363;52.772;-3.890;2022-11-15T03:24:30;12.60;99.90
25436;DHT22;13363;52.772;-3.890;2022-11-15T03:26:59;12.70;99.90
25436;DHT22;13363;52.772;-3.890;2022-11-15T03:29:35;12.70;99.90
25436;DHT22;13363;52.772;-3.890;2022-11-15T03:32:12;12.70;99.90
25436;DHT22;13363;52.772;-3.890;2022-11-15T03:34:44;12.80;99.90
25436;DHT22;13363;52.772;-3.890;2022-11-15T03:37:14;12.80;99.90
25436;DHT22;13363;52.772;-3.890;2022-11-15T03:39:42;12.80;99.90
25436;DHT22;13363;52.772;-3.890;2022-11-15T03:42:33;12.90;99.90
25436;DHT22;13363;52.772;-3.890;2022-11-15T03:45:17;12.80;99.90
25436;DHT22;13363;52.772;-3.890;2022-11-15T03:48:06;12.80;99.90
25436;DHT22;13363;52.772;-3.890;2022-11-15T03:50:34;12.80;99.90
25436;DHT22;13363;52.772;-3.890;2022-11-15T03:53:00;12.90;99.90
25436;DHT22;13363;52.772;-3.890;2022-11-15T03:55:26;12.90;99.90
25436;DHT22;13363;52.772;-3.890;2022-11-15T03:57:56;13.00;99.90
25436;DHT22;13363;52.772;-3.890;2022-11-15T04:00:23;13.10;99.90
25436;DHT22;13363;52.772;-3.890;2022-11-15T04:02:49;13.00;99.90
25436;DHT22;13363;52.772;-3.890;2022-11-15T04:05:14;13.00;99.90
25436;DHT22;13363;52.772;-3.890;2022-11-15T04:07:40;13.10;99.90
25436;DHT22;13363;52.772;-3.890;2022-11-15T04:10:07;13.10;99.90
25436;DHT22;13363;52.772;-3.890;2022-11-15T04:12:38;13.20;99.90
25436;DHT22;13363;52.772;-3.890;2022-11-15T04:15:07;13.20;99.90
25436;DHT22;13363;52.772;-3.890;2022-11-15T04:17:56;13.30;99.90
25436;DHT22;13363;52.772;-3.890;2022-11-15T04:20:25;13.30;99.90
25436;DHT22;13363;52.772;-3.890;2022-11-15T04:23:12;13.30;99.90
25436;DHT22;13363;52.772;-3.890;2022-11-15T04:26:00;13.30;99.90
25436;DHT22;13363;52.772;-3.890;2022-11-15T04:28:26;13.30;99.90
25436;DHT22;13363;52.772;-3.890;2022-11-15T04:30:52;13.30;99.90
25436;DHT22;13363;52.772;-3.890;2022-11-15T04:33:18;13.30;99.90
25436;DHT22;13363;52.772;-3.890;2022-11-15T04:35:44;13.30;99.90
25436;DHT22;13363;52.772;-3.890;2022-11-15T04:38:30;13.30;99.90
25436;DHT22;13363;52.772;-3.890;2022-11-15T04:40:56;13.30;99.90
25436;DHT22;13363;52.772;-3.890;2022-11-15T04:43:22;13.30;99.90
25436;DHT22;13363;52.772;-3.890;2022-11-15T04:45:48;13.20;99.90
25436;DHT22;13363;52.772;-3.890;2022-11-15T04:48:14;13.30;99.90
25436;DHT22;13363;52.772;-3.890;2022-11-15T04:50:39;13.30;99.90
25436;DHT22;13363;52.772;-3.890;2022-11-15T04:53:05;13.20;99.90
25436;DHT22;13363;52.772;-3.890;2022-11-15T04:55:31;13.20;99.90
25436;DHT22;13363;52.772;-3.890;2022-11-15T04:57:58;13.10;99.90
25436;DHT22;13363;52.772;-3.890;2022-11-15T05:00:25;13.10;99.90
25436;DHT22;13363;52.772;-3.890;2022-11-15T05:02:51;13.10;99.90
25436;DHT22;13363;52.772;-3.890;2022-11-15T05:05:36;13.10;99.90
25436;DHT22;13363;52.772;-3.890;2022-11-15T05:08:02;13.10;99.90
25436;DHT22;13363;52.772;-3.890;2022-11-15T05:10:28;13.20;99.90
25436;DHT22;13363;52.772;-3.890;2022-11-15T05:12:53;13.20;99.90
25436;DHT22;13363;52.772;-3.890;2022-11-15T05:15:19;13.20;99.90
25436;DHT22;13363;52.772;-3.890;2022-11-15T05:17:45;13.30;99.90
25436;DHT22;13363;52.772;-3.890;2022-11-15T05:20:13;13.30;99.90
25436;DHT22;13363;52.772;-3.890;2022-11-15T05:22:39;13.30;99.90
25436;DHT22;13363;52.772;-3.890;2022-11-15T05:25:05;13.30;99.90
25436;DHT22;13363;52.772;-3.890;2022-11-15T05:27:32;13.30;99.90
25436;DHT22;13363;52.772;-3.890;2022-11-15T05:29:58;13.30;99.90
25436;DHT22;13363;52.772;-3.890;2022-11-15T05:32:24;13.40;99.90
25436;DHT22;13363;52.772;-3.890;2022-11-15T05:34:50;13.30;99.90
25436;DHT22;13363;52.772;-3.890;2022-11-15T05:37:16;13.30;99.90
25436;DHT22;13363;52.772;-3.890;2022-11-15T05:39:42;13.30;99.90
25436;DHT22;13363;52.772;-3.890;2022-11-15T05:42:13;13.30;99.90
25436;DHT22;13363;52.772;-3.890;2022-11-15T05:44:41;13.40;99.90
25436;DHT22;13363;52.772;-3.890;2022-11-15T05:47:11;13.40;99.90
25436;DHT22;13363;52.772;-3.890;2022-11-15T05:49:40;13.40;99.90
25436;DHT22;13363;52.772;-3.890;2022-11-15T05:52:09;13.40;99.90
25436;DHT22;13363;52.772;-3.890;2022-11-15T05:57:03;13.40;99.90
25436;DHT22;13363;52.772;-3.890;2022-11-15T05:59:30;13.40;99.90
25436;DHT22;13363;52.772;-3.890;2022-11-15T06:01:57;13.40;99.90
25436;DHT22;13363;52.772;-3.890;2022-11-15T06:04:23;13.40;99.90
25436;DHT22;13363;52.772;-3.890;2022-11-15T06:06:48;13.40;99.90
25436;DHT22;13363;52.772;-3.890;2022-11-15T06:09:14;13.40;99.90
25436;DHT22;13363;52.772;-3.890;2022-11-15T06:11:40;13.30;99.90
25436;DHT22;13363;52.772;-3.890;2022-11-15T06:14:06;13.30;99.90
25436;DHT22;13363;52.772;-3.890;2022-11-15T06:16:32;13.30;99.90
25436;DHT22;13363;52.772;-3.890;2022-11-15T06:18:57;13.30;99.90
25436;DHT22;13363;52.772;-3.890;2022-11-15T06:21:23;13.40;99.90
25436;DHT22;13363;52.772;-3.890;2022-11-15T06:23:49;13.40;99.90
25436;DHT22;13363;52.772;-3.890;2022-11-15T06:26:15;13.40;99.90
25436;DHT22;13363;52.772;-3.890;2022-11-15T06:28:41;13.40;99.90
25436;DHT22;13363;52.772;-3.890;2022-11-15T06:31:11;13.40;99.90
25436;DHT22;13363;52.772;-3.890;2022-11-15T06:33:40;13.50;99.90
25436;DHT22;13363;52.772;-3.890;2022-11-15T06:36:08;13.40;99.90
25436;DHT22;13363;52.772;-3.890;2022-11-15T06:38:35;13.40;99.90
25436;DHT22;13363;52.772;-3.890;2022-11-15T06:41:05;13.50;99.90
25436;DHT22;13363;52.772;-3.890;2022-11-15T06:43:32;13.50;99.90
25436;DHT22;13363;52.772;-3.890;2022-11-15T06:46:01;13.40;99.90
25436;DHT22;13363;52.772;-3.890;2022-11-15T06:48:28;13.30;99.90
25436;DHT22;13363;52.772;-3.890;2022-11-15T06:50:59;13.30;99.90
25436;DHT22;13363;52.772;-3.890;2022-11-15T06:53:26;13.20;99.90
25436;DHT22;13363;52.772;-3.890;2022-11-15T06:55:52;13.10;99.90
25436;DHT22;13363;52.772;-3.890;2022-11-15T06:58:20;13.00;99.90
25436;DHT22;13363;52.772;-3.890;2022-11-15T07:00:46;12.90;99.90
25436;DHT22;13363;52.772;-3.890;2022-11-15T07:03:12;12.90;99.90
25436;DHT22;13363;52.772;-3.890;2022-11-15T07:05:38;12.80;99.90
25436;DHT22;13363;52.772;-3.890;2022-11-15T07:08:04;12.70;99.90
25436;DHT22;13363;52.772;-3.890;2022-11-15T07:10:30;12.70;99.90
25436;DHT22;13363;52.772;-3.890;2022-11-15T07:12:56;12.80;99.90
25436;DHT22;13363;52.772;-3.890;2022-11-15T07:15:24;12.80;99.90
25436;DHT22;13363;52.772;-3.890;2022-11-15T07:17:50;12.80;99.90
25436;DHT22;13363;52.772;-3.890;2022-11-15T07:20:16;12.70;99.90
25436;DHT22;13363;52.772;-3.890;2022-11-15T07:22:42;12.70;99.90
25436;DHT22;13363;52.772;-3.890;2022-11-15T07:25:10;12.70;99.90
25436;DHT22;13363;52.772;-3.890;2022-11-15T07:27:37;12.60;99.90
25436;DHT22;13363;52.772;-3.890;2022-11-15T07:30:04;12.60;99.90
25436;DHT22;13363;52.772;-3.890;2022-11-15T07:32:30;12.60;99.90
25436;DHT22;13363;52.772;-3.890;2022-11-15T07:34:56;12.60;99.90
25436;DHT22;13363;52.772;-3.890;2022-11-15T07:37:22;12.60;99.90
25436;DHT22;13363;52.772;-3.890;2022-11-15T07:39:48;12.60;99.90
25436;DHT22;13363;52.772;-3.890;2022-11-15T07:42:13;12.60;99.90
25436;DHT22;13363;52.772;-3.890;2022-11-15T07:44:58;12.60;99.90
25436;DHT22;13363;52.772;-3.890;2022-11-15T07:47:23;12.60;99.90
25436;DHT22;13363;52.772;-3.890;2022-11-15T07:49:49;12.50;99.90
25436;DHT22;13363;52.772;-3.890;2022-11-15T07:52:15;12.50;99.90
25436;DHT22;13363;52.772;-3.890;2022-11-15T07:54:41;12.70;99.90
25436;DHT22;13363;52.772;-3.890;2022-11-15T07:57:06;12.60;99.90
25436;DHT22;13363;52.772;-3.890;2022-11-15T07:59:34;12.60;99.90
25436;DHT22;13363;52.772;-3.890;2022-11-15T08:02:01;12.50;99.90
25436;DHT22;13363;52.772;-3.890;2022-11-15T08:04:27;12.50;99.90
25436;DHT22;13363;52.772;-3.890;2022-11-15T08:06:52;12.60;99.90
25436;DHT22;13363;52.772;-3.890;2022-11-15T08:09:18;12.70;99.90
25436;DHT22;13363;52.772;-3.890;2022-11-15T08:11:44;12.60;99.90
25436;DHT22;13363;52.772;-3.890;2022-11-15T08:14:10;12.50;99.90
25436;DHT22;13363;52.772;-3.890;2022-11-15T08:16:35;12.50;99.90
25436;DHT22;13363;52.772;-3.890;2022-11-15T08:19:01;12.50;99.90
25436;DHT22;13363;52.772;-3.890;2022-11-15T08:21:27;12.40;99.90
25436;DHT22;13363;52.772;-3.890;2022-11-15T08:23:53;12.60;99.90
25436;DHT22;13363;52.772;-3.890;2022-11-15T08:26:19;12.60;99.90
25436;DHT22;13363;52.772;-3.890;2022-11-15T08:28:45;12.50;99.90
25436;DHT22;13363;52.772;-3.890;2022-11-15T08:31:16;12.50;99.90
25436;DHT22;13363;52.772;-3.890;2022-11-15T08:33:43;12.40;99.90
25436;DHT22;13363;52.772;-3.890;2022-11-15T08:36:13;12.50;99.90
25436;DHT22;13363;52.772;-3.890;2022-11-15T08:38:40;12.40;99.90
25436;DHT22;13363;52.772;-3.890;2022-11-15T08:41:06;12.50;99.90
25436;DHT22;13363;52.772;-3.890;2022-11-15T08:45:59;12.50;99.90
25436;DHT22;13363;52.772;-3.890;2022-11-15T08:48:25;12.50;99.90
25436;DHT22;13363;52.772;-3.890;2022-11-15T08:50:59;12.40;99.90
25436;DHT22;13363;52.772;-3.890;2022-11-15T08:53:25;12.40;99.90
25436;DHT22;13363;52.772;-3.890;2022-11-15T08:58:17;12.50;99.90
25436;DHT22;13363;52.772;-3.890;2022-11-15T09:00:43;12.50;99.90
25436;DHT22;13363;52.772;-3.890;2022-11-15T09:03:09;12.50;99.90
25436;DHT22;13363;52.772;-3.890;2022-11-15T09:05:38;12.60;99.90
25436;DHT22;13363;52.772;-3.890;2022-11-15T09:08:04;12.50;99.90
25436;DHT22;13363;52.772;-3.890;2022-11-15T09:10:30;12.50;99.90
25436;DHT22;13363;52.772;-3.890;2022-11-15T09:12:59;12.50;99.90
25436;DHT22;13363;52.772;-3.890;2022-11-15T09:15:24;12.50;99.90
25436;DHT22;13363;52.772;-3.890;2022-11-15T09:17:50;12.40;99.90
25436;DHT22;13363;52.772;-3.890;2022-11-15T09:20:16;12.30;99.90
25436;DHT22;13363;52.772;-3.890;2022-11-15T09:22:42;12.30;99.90
25436;DHT22;13363;52.772;-3.890;2022-11-15T09:25:08;12.30;99.90
25436;DHT22;13363;52.772;-3.890;2022-11-15T09:27:34;12.30;99.90
25436;DHT22;13363;52.772;-3.890;2022-11-15T09:30:00;12.40;99.90
25436;DHT22;13363;52.772;-3.890;2022-11-15T09:32:29;12.40;99.90
25436;DHT22;13363;52.772;-3.890;2022-11-15T09:34:57;12.40;99.90
25436;DHT22;13363;52.772;-3.890;2022-11-15T09:37:23;12.40;99.90
25436;DHT22;13363;52.772;-3.890;2022-11-15T09:39:49;12.40;99.90
25436;DHT22;13363;52.772;-3.890;2022-11-15T09:44:42;12.50;99.90
25436;DHT22;13363;52.772;-3.890;2022-11-15T09:49:57;12.50;99.90
25436;DHT22;13363;52.772;-3.890;2022-11-15T09:52:24;12.50;99.90
25436;DHT22;13363;52.772;-3.890;2022-11-15T09:54:51;12.50;99.90
25436;DHT22;13363;52.772;-3.890;2022-11-15T09:57:37;12.50;99.90
25436;DHT22;13363;52.772;-3.890;2022-11-15T10:00:27;12.50;99.90
25436;DHT22;13363;52.772;-3.890;2022-11-15T10:03:14;12.50;99.90
25436;DHT22;13363;52.772;-3.890;2022-11-15T10:05:43;12.50;99.90
25436;DHT22;13363;52.772;-3.890;2022-11-15T10:11:25;12.50;99.90
25436;DHT22;13363;52.772;-3.890;2022-11-15T10:13:55;12.50;99.90
25436;DHT22;13363;52.772;-3.890;2022-11-15T10:22:18;12.60;99.90
25436;DHT22;13363;52.772;-3.890;2022-11-15T10:24:47;12.70;99.90
25436;DHT22;13363;52.772;-3.890;2022-11-15T10:27:16;12.80;99.90
25436;DHT22;13363;52.772;-3.890;2022-11-15T10:29:48;12.80;99.90
25436;DHT22;13363;52.772;-3.890;2022-11-15T10:32:17;12.80;99.90
25436;DHT22;13363;52.772;-3.890;2022-11-15T10:34:44;12.70;99.90
25436;DHT22;13363;52.772;-3.890;2022-11-15T10:37:10;12.80;99.90
25436;DHT22;13363;52.772;-3.890;2022-11-15T10:39:36;12.90;99.90
25436;DHT22;13363;52.772;-3.890;2022-11-15T10:42:26;12.80;99.90
25436;DHT22;13363;52.772;-3.890;2022-11-15T10:44:52;12.90;99.90
25436;DHT22;13363;52.772;-3.890;2022-11-15T10:47:27;12.80;99.90
25436;DHT22;13363;52.772;-3.890;2022-11-15T10:50:00;12.80;99.90
25436;DHT22;13363;52.772;-3.890;2022-11-15T10:52:27;12.90;99.90
25436;DHT22;13363;52.772;-3.890;2022-11-15T10:57:28;13.00;99.90
25436;DHT22;13363;52.772;-3.890;2022-11-15T11:00:00;13.10;99.90
25436;DHT22;13363;52.772;-3.890;2022-11-15T11:02:37;13.20;99.90
25436;DHT22;13363;52.772;-3.890;2022-11-15T11:05:34;13.20;99.90
25436;DHT22;13363;52.772;-3.890;2022-11-15T11:08:19;13.30;99.90
25436;DHT22;13363;52.772;-3.890;2022-11-15T11:11:02;13.30;99.90
25436;DHT22;13363;52.772;-3.890;2022-11-15T11:13:31;13.30;99.90
25436;DHT22;13363;52.772;-3.890;2022-11-15T11:16:18;13.30;99.90
25436;DHT22;13363;52.772;-3.890;2022-11-15T11:27:29;13.50;99.90
25436;DHT22;13363;52.772;-3.890;2022-11-15T11:32:43;13.60;99.90
25436;DHT22;13363;52.772;-3.890;2022-11-15T11:35:30;13.80;99.90
25436;DHT22;13363;52.772;-3.890;2022-11-15T11:38:19;13.80;99.90
25436;DHT22;13363;52.772;-3.890;2022-11-15T11:41:08;13.70;99.90
25436;DHT22;13363;52.772;-3.890;2022-11-15T11:43:58;13.80;99.90
25436;DHT22;13363;52.772;-3.890;2022-11-15T11:46:30;13.80;99.90
25436;DHT22;13363;52.772;-3.890;2022-11-15T11:49:10;13.70;99.90
25436;DHT22;13363;52.772;-3.890;2022-11-15T11:51:47;13.70;99.90
25436;DHT22;13363;52.772;-3.890;2022-11-15T11:54:25;13.70;99.90
25436;DHT22;13363;52.772;-3.890;2022-11-15T11:56:53;13.90;99.90
25436;DHT22;13363;52.772;-3.890;2022-11-15T12:02:28;14.40;99.90
25436;DHT22;13363;52.772;-3.890;2022-11-15T12:05:03;14.70;99.90
25436;DHT22;13363;52.772;-3.890;2022-11-15T12:07:32;15.00;99.90
25436;DHT22;13363;52.772;-3.890;2022-11-15T12:10:14;15.00;99.90
25436;DHT22;13363;52.772;-3.890;2022-11-15T12:15:24;14.90;99.90
25436;DHT22;13363;52.772;-3.890;2022-11-15T12:17:51;14.70;99.90
25436;DHT22;13363;52.772;-3.890;2022-11-15T12:20:24;14.70;99.90
25436;DHT22;13363;52.772;-3.890;2022-11-15T12:25:36;14.40;99.90
25436;DHT22;13363;52.772;-3.890;2022-11-15T12:33:56;14.00;99.90
25436;DHT22;13363;52.772;-3.890;2022-11-15T12:39:04;13.70;99.90
25436;DHT22;13363;52.772;-3.890;2022-11-15T12:41:42;13.40;99.90
25436;DHT22;13363;52.772;-3.890;2022-11-15T12:59:54;13.40;99.90
25436;DHT22;13363;52.772;-3.890;2022-11-15T13:02:38;13.40;99.90
25436;DHT22;13363;52.772;-3.890;2022-11-15T13:17:44;13.80;99.90
25436;DHT22;13363;52.772;-3.890;2022-11-15T13:27:53;14.40;99.90
25436;DHT22;13363;52.772;-3.890;2022-11-15T13:30:26;14.60;99.90
25436;DHT22;13363;52.772;-3.890;2022-11-15T13:32:52;14.90;99.90
25436;DHT22;13363;52.772;-3.890;2022-11-15T13:35:25;14.40;99.90
25436;DHT22;13363;52.772;-3.890;2022-11-15T13:37:53;14.20;99.90
25436;DHT22;13363;52.772;-3.890;2022-11-15T13:40:26;14.00;99.90
25436;DHT22;13363;52.772;-3.890;2022-11-15T13:42:58;14.00;99.90
25436;DHT22;13363;52.772;-3.890;2022-11-15T13:45:24;14.10;99.90
25436;DHT22;13363;52.772;-3.890;2022-11-15T13:47:54;14.10;99.90
25436;DHT22;13363;52.772;-3.890;2022-11-15T13:50:32;13.90;99.90
25436;DHT22;13363;52.772;-3.890;2022-11-15T13:53:01;14.00;99.90
25436;DHT22;13363;52.772;-3.890;2022-11-15T13:55:29;14.10;99.90
25436;DHT22;13363;52.772;-3.890;2022-11-15T13:58:00;14.10;99.90
25436;DHT22;13363;52.772;-3.890;2022-11-15T14:00:36;14.10;99.90
25436;DHT22;13363;52.772;-3.890;2022-11-15T14:03:20;14.10;99.90
25436;DHT22;13363;52.772;-3.890;2022-11-15T14:06:16;14.10;99.90
25436;DHT22;13363;52.772;-3.890;2022-11-15T14:09:00;13.90;99.90
25436;DHT22;13363;52.772;-3.890;2022-11-15T14:11:26;13.80;99.90
25436;DHT22;13363;52.772;-3.890;2022-11-15T14:16:36;13.50;99.90
25436;DHT22;13363;52.772;-3.890;2022-11-15T14:19:04;13.40;99.90
25436;DHT22;13363;52.772;-3.890;2022-11-15T14:21:30;13.30;99.90
25436;DHT22;13363;52.772;-3.890;2022-11-15T14:24:19;13.20;99.90
25436;DHT22;13363;52.772;-3.890;2022-11-15T14:26:47;13.10;99.90
25436;DHT22;13363;52.772;-3.890;2022-11-15T14:29:23;13.20;99.90
25436;DHT22;13363;52.772;-3.890;2022-11-15T14:31:49;13.10;99.90
25436;DHT22;13363;52.772;-3.890;2022-11-15T14:34:15;13.10;99.90
25436;DHT22;13363;52.772;-3.890;2022-11-15T14:36:41;13.20;99.90
25436;DHT22;13363;52.772;-3.890;2022-11-15T14:39:07;13.20;99.90
25436;DHT22;13363;52.772;-3.890;2022-11-15T14:41:35;13.10;99.90
25436;DHT22;13363;52.772;-3.890;2022-11-15T14:44:05;13.10;99.90
25436;DHT22;13363;52.772;-3.890;2022-11-15T14:46:31;13.10;99.90
25436;DHT22;13363;52.772;-3.890;2022-11-15T14:48:57;13.10;99.90
25436;DHT22;13363;52.772;-3.890;2022-11-15T14:51:24;13.00;99.90
25436;DHT22;13363;52.772;-3.890;2022-11-15T14:53:51;12.90;99.90
25436;DHT22;13363;52.772;-3.890;2022-11-15T14:56:18;12.80;99.90
25436;DHT22;13363;52.772;-3.890;2022-11-15T14:58:43;12.70;99.90
25436;DHT22;13363;52.772;-3.890;2022-11-15T15:01:19;12.60;99.90
25436;DHT22;13363;52.772;-3.890;2022-11-15T15:03:45;12.40;99.90
25436;DHT22;13363;52.772;-3.890;2022-11-15T15:06:11;12.30;99.90
25436;DHT22;13363;52.772;-3.890;2022-11-15T15:08:42;12.10;99.90
25436;DHT22;13363;52.772;-3.890;2022-11-15T15:11:14;12.00;99.90
25436;DHT22;13363;52.772;-3.890;2022-11-15T15:13:41;11.90;99.90
25436;DHT22;13363;52.772;-3.890;2022-11-15T15:16:07;11.80;99.90
25436;DHT22;13363;52.772;-3.890;2022-11-15T15:18:32;11.80;99.90
25436;DHT22;13363;52.772;-3.890;2022-11-15T15:20:59;11.70;99.90
25436;DHT22;13363;52.772;-3.890;2022-11-15T15:23:28;11.60;99.90
25436;DHT22;13363;52.772;-3.890;2022-11-15T15:25:56;11.60;99.90
25436;DHT22;13363;52.772;-3.890;2022-11-15T15:28:22;11.50;99.90
25436;DHT22;13363;52.772;-3.890;2022-11-15T15:30:48;11.50;99.90
25436;DHT22;13363;52.772;-3.890;2022-11-15T15:33:15;11.50;99.90
25436;DHT22;13363;52.772;-3.890;2022-11-15T15:35:41;11.50;99.90
25436;DHT22;13363;52.772;-3.890;2022-11-15T15:38:12;11.50;99.90
25436;DHT22;13363;52.772;-3.890;2022-11-15T15:40:38;11.50;99.90
25436;DHT22;13363;52.772;-3.890;2022-11-15T15:43:04;11.50;99.90
25436;DHT22;13363;52.772;-3.890;2022-11-15T15:45:31;11.50;99.90
25436;DHT22;13363;52.772;-3.890;2022-11-15T15:47:57;11.50;99.90
25436;DHT22;13363;52.772;-3.890;2022-11-15T15:50:26;11.50;99.90
25436;DHT22;13363;52.772;-3.890;2022-11-15T15:52:53;11.50;99.90
25436;DHT22;13363;52.772;-3.890;2022-11-15T15:55:20;11.40;99.90
25436;DHT22;13363;52.772;-3.890;2022-11-15T15:57:47;11.30;99.90
25436;DHT22;13363;52.772;-3.890;2022-11-15T16:00:13;11.20;99.90
25436;DHT22;13363;52.772;-3.890;2022-11-15T16:02:40;11.10;99.90
25436;DHT22;13363;52.772;-3.890;2022-11-15T16:05:07;11.00;99.90
25436;DHT22;13363;52.772;-3.890;2022-11-15T16:07:33;11.00;99.90
25436;DHT22;13363;52.772;-3.890;2022-11-15T16:09:59;10.90;99.90
25436;DHT22;13363;52.772;-3.890;2022-11-15T16:12:35;10.90;99.90
25436;DHT22;13363;52.772;-3.890;2022-11-15T16:15:02;10.80;99.90
25436;DHT22;13363;52.772;-3.890;2022-11-15T16:17:35;10.80;99.90
25436;DHT22;13363;52.772;-3.890;2022-11-15T16:20:03;10.70;99.90
25436;DHT22;13363;52.772;-3.890;2022-11-15T16:22:29;10.60;99.90
25436;DHT22;13363;52.772;-3.890;2022-11-15T16:24:55;10.70;99.90
25436;DHT22;13363;52.772;-3.890;2022-11-15T16:27:21;10.60;99.90
25436;DHT22;13363;52.772;-3.890;2022-11-15T16:29:48;10.60;99.90
25436;DHT22;13363;52.772;-3.890;2022-11-15T16:32:14;10.60;99.90
25436;DHT22;13363;52.772;-3.890;2022-11-15T16:34:40;10.60;99.90
25436;DHT22;13363;52.772;-3.890;2022-11-15T16:37:22;10.60;99.90
25436;DHT22;13363;52.772;-3.890;2022-11-15T16:39:48;10.60;99.90
25436;DHT22;13363;52.772;-3.890;2022-11-15T16:42:15;10.60;99.90
25436;DHT22;13363;52.772;-3.890;2022-11-15T16:44:40;10.50;99.90
25436;DHT22;13363;52.772;-3.890;2022-11-15T16:47:18;10.50;99.90
25436;DHT22;13363;52.772;-3.890;2022-11-15T16:49:44;10.50;99.90
25436;DHT22;13363;52.772;-3.890;2022-11-15T16:52:10;10.50;99.90
25436;DHT22;13363;52.772;-3.890;2022-11-15T16:54:36;10.40;99.90
25436;DHT22;13363;52.772;-3.890;2022-11-15T16:57:02;10.40;99.90
25436;DHT22;13363;52.772;-3.890;2022-11-15T16:59:28;10.40;99.90
25436;DHT22;13363;52.772;-3.890;2022-11-15T17:01:55;10.40;99.90
25436;DHT22;13363;52.772;-3.890;2022-11-15T17:04:21;10.30;99.90
25436;DHT22;13363;52.772;-3.890;2022-11-15T17:06:48;10.30;99.90
25436;DHT22;13363;52.772;-3.890;2022-11-15T17:09:23;10.30;99.90
25436;DHT22;13363;52.772;-3.890;2022-11-15T17:11:49;10.30;99.90
25436;DHT22;13363;52.772;-3.890;2022-11-15T17:14:23;10.30;99.90
25436;DHT22;13363;52.772;-3.890;2022-11-15T17:16:51;10.30;99.90
25436;DHT22;13363;52.772;-3.890;2022-11-15T17:19:24;10.20;99.90
25436;DHT22;13363;52.772;-3.890;2022-11-15T17:21:58;10.20;99.90
25436;DHT22;13363;52.772;-3.890;2022-11-15T17:24:30;10.20;99.90
25436;DHT22;13363;52.772;-3.890;2022-11-15T17:27:05;10.20;99.90
25436;DHT22;13363;52.772;-3.890;2022-11-15T17:29:37;10.20;99.90
25436;DHT22;13363;52.772;-3.890;2022-11-15T17:32:09;10.20;99.90
25436;DHT22;13363;52.772;-3.890;2022-11-15T17:34:39;10.20;99.90